Terminal Aerodrome Forecast
Issued by NWS Binghamton, NY

Home | Current Version | Previous Version | Text Only | Print | Product List | Glossary On
Versions: 1 2 3 4 5 6 7 8 9 10 11 12 13 14 15 16 17 18 19 20
000
FTUS41 KBGM 060859 AAA
TAFBGM
TAF AMD
KBGM 060859Z 0609/0706 VRB03KT P6SM SCT100 BKN250
     FM061400 18005KT P6SM SCT040 BKN100
     FM061900 18008KT P6SM BKN040 OVC100=

USA.gov is the U.S. government's official web portal to all federal, state and local government web resources and services.